createdAt,value
2023-02-24T00:01:52.589Z,100502.59
2023-02-24T00:04:21.281Z,100494.72
2023-02-24T00:06:49.176Z,100496.56
2023-02-24T00:09:20.664Z,100493.88
2023-02-24T00:12:10.926Z,100490.34
2023-02-24T00:14:40.395Z,100490.34
2023-02-24T00:17:08.511Z,100488.53
2023-02-24T00:19:37.201Z,100485.06
2023-02-24T00:22:06.424Z,100491.94
2023-02-24T00:24:35.674Z,100491.94
2023-02-24T00:27:08.607Z,100478.81
2023-02-24T00:29:39.869Z,100474.44
2023-02-24T00:32:12.636Z,100475.34
2023-02-24T00:34:41.446Z,100457.91
2023-02-24T00:37:09.377Z,100459.59
2023-02-24T00:39:41.538Z,100456.97
2023-02-24T00:42:11.921Z,100449.06
2023-02-24T00:44:43.784Z,100450.06
2023-02-24T00:47:12.715Z,100450.91
2023-02-24T00:49:44.334Z,100449.12
2023-02-24T00:52:15.620Z,100443.91
2023-02-24T00:54:45.955Z,100443.84
2023-02-24T00:57:14.433Z,100436.81
2023-02-24T00:59:47.731Z,100436.81
2023-02-24T01:02:16.007Z,100431.69
2023-02-24T01:04:45.144Z,100433.31
2023-02-24T01:07:14.223Z,100429.16
2023-02-24T01:09:44.307Z,100425.97
2023-02-24T01:12:22.124Z,100427.41
2023-02-24T01:14:52.243Z,100426.56
2023-02-24T01:17:20.700Z,100420.56
2023-02-24T01:19:49.949Z,100418.62
2023-02-24T01:22:19.908Z,100416.00
2023-02-24T01:24:48.547Z,100414.41
2023-02-24T01:27:19.022Z,100408.16
2023-02-24T01:29:48.206Z,100406.47
2023-02-24T01:32:19.372Z,100398.62
2023-02-24T01:34:47.927Z,100403.00
2023-02-24T01:37:16.557Z,100395.19
2023-02-24T01:39:45.402Z,100396.81
2023-02-24T01:42:17.027Z,100386.34
2023-02-24T01:44:48.069Z,100388.09
2023-02-24T01:47:18.009Z,100378.50
2023-02-24T01:49:48.041Z,100375.03
2023-02-24T01:52:23.647Z,100375.81
2023-02-24T01:54:58.440Z,100372.41
2023-02-24T01:57:29.835Z,100359.59
2023-02-24T02:00:09.508Z,100368.03
2023-02-24T02:02:43.921Z,100362.03
2023-02-24T02:05:11.977Z,100369.81
2023-02-24T02:07:40.471Z,100368.47
2023-02-24T02:10:09.654Z,100366.47
2023-02-24T02:12:44.571Z,100366.53
2023-02-24T02:15:15.046Z,100366.47
2023-02-24T02:17:59.094Z,100363.00
2023-02-24T02:20:55.942Z,100368.19
2023-02-24T02:23:48.873Z,100364.69
2023-02-24T02:26:33.302Z,100364.00
2023-02-24T02:29:38.808Z,100367.38
2023-02-24T02:32:38.434Z,100365.91
2023-02-24T02:35:09.401Z,100359.75
2023-02-24T02:37:41.338Z,100363.31
2023-02-24T02:40:21.101Z,100354.88
2023-02-24T02:43:18.488Z,100351.94
2023-02-24T02:45:56.004Z,100347.69
2023-02-24T02:48:42.552Z,100345.22
2023-02-24T02:51:13.484Z,100348.47
2023-02-24T02:53:47.731Z,100350.34
2023-02-24T02:56:30.690Z,100344.63
2023-02-24T02:58:59.870Z,100346.50
2023-02-24T03:01:31.119Z,100339.28
2023-02-24T03:04:04.866Z,100334.28
2023-02-24T03:06:35.655Z,100332.63
2023-02-24T03:09:16.100Z,100337.84
2023-02-24T03:11:54.104Z,100340.28
2023-02-24T03:14:28.230Z,100334.47
2023-02-24T03:16:58.778Z,100340.38
2023-02-24T03:19:31.189Z,100343.06
2023-02-24T03:22:07.063Z,100338.75
2023-02-24T03:24:38.943Z,100342.53
2023-02-24T03:27:14.383Z,100337.19
2023-02-24T03:29:48.915Z,100339.03
2023-02-24T03:32:23.584Z,100324.50
2023-02-24T03:35:06.816Z,100322.50
2023-02-24T03:37:36.897Z,100329.81
2023-02-24T03:40:11.908Z,100329.09
2023-02-24T03:42:53.048Z,100338.50
2023-02-24T03:45:23.133Z,100332.75
2023-02-24T03:47:54.069Z,100330.97
2023-02-24T03:50:22.283Z,100326.91
2023-02-24T03:52:59.142Z,100326.06
2023-02-24T03:56:00.835Z,100323.44
2023-02-24T03:58:34.843Z,100323.38
2023-02-24T04:01:19.290Z,100322.53
2023-02-24T04:04:08.959Z,100328.66
2023-02-24T04:06:49.848Z,100314.09
2023-02-24T04:09:33.370Z,100316.78
2023-02-24T04:12:18.869Z,100312.25
2023-02-24T04:15:21.117Z,100316.53
2023-02-24T04:18:07.244Z,100310.47
2023-02-24T04:20:36.635Z,100307.78
2023-02-24T04:23:11.519Z,100300.94
2023-02-24T04:25:44.517Z,100300.66
2023-02-24T04:28:12.636Z,100299.66
2023-02-24T04:30:48.508Z,100304.66
2023-02-24T04:33:17.688Z,100302.13
2023-02-24T04:35:46.740Z,100298.72
2023-02-24T04:38:14.529Z,100291.59
2023-02-24T04:40:42.606Z,100295.97
2023-02-24T04:43:11.050Z,100295.97
2023-02-24T04:45:40.273Z,100294.00
2023-02-24T04:48:12.979Z,100294.78
2023-02-24T04:50:43.780Z,100292.91
2023-02-24T04:53:16.624Z,100293.31
2023-02-24T04:55:49.930Z,100280.72
2023-02-24T04:58:20.459Z,100281.06
2023-02-24T05:00:52.590Z,100283.44
2023-02-24T05:03:22.433Z,100276.59
2023-02-24T05:05:52.176Z,100276.41
2023-02-24T05:08:19.952Z,100274.09
2023-02-24T05:10:47.746Z,100272.94
2023-02-24T05:13:18.306Z,100267.87
2023-02-24T05:15:47.902Z,100267.78
2023-02-24T05:18:24.089Z,100273.44
2023-02-24T05:21:13.412Z,100261.03
2023-02-24T05:23:46.210Z,100260.41
2023-02-24T05:26:16.974Z,100256.56
2023-02-24T05:28:49.387Z,100248.84
2023-02-24T05:31:24.213Z,100244.59
2023-02-24T05:33:57.837Z,100264.22
2023-02-24T05:36:27.784Z,100265.22
2023-02-24T05:39:04.789Z,100262.78
2023-02-24T05:41:38.584Z,100265.06
2023-02-24T05:44:09.341Z,100259.66
2023-02-24T05:46:39.969Z,100257.72
2023-02-24T05:49:23.700Z,100259.44
2023-02-24T05:51:56.239Z,100262.84
2023-02-24T05:54:30.160Z,100264.00
2023-02-24T05:57:12.936Z,100261.09
2023-02-24T05:59:41.408Z,100264.75
2023-02-24T06:02:14.055Z,100266.31
2023-02-24T06:04:51.327Z,100255.34
2023-02-24T06:07:25.026Z,100250.44
2023-02-24T06:09:56.621Z,100253.19
2023-02-24T06:12:33.801Z,100248.06
2023-02-24T06:15:07.664Z,100253.41
2023-02-24T06:17:35.537Z,100257.81
2023-02-24T06:20:13.796Z,100272.75
2023-02-24T06:22:42.625Z,100277.97
2023-02-24T06:25:14.262Z,100274.13
2023-02-24T06:27:43.230Z,100274.66
2023-02-24T06:30:12.249Z,100274.09
2023-02-24T06:32:40.173Z,100271.63
2023-02-24T06:35:08.749Z,100273.09
2023-02-24T06:37:36.524Z,100267.09
2023-02-24T06:40:15.754Z,100265.88
2023-02-24T06:42:46.857Z,100264.88
2023-02-24T06:45:15.545Z,100265.78
2023-02-24T06:47:43.706Z,100264.31
2023-02-24T06:50:12.439Z,100260.25
2023-02-24T06:52:40.806Z,100254.72
2023-02-24T06:55:25.481Z,100259.44
2023-02-24T06:57:58.806Z,100253.13
2023-02-24T07:00:39.017Z,100245.38
2023-02-24T07:03:17.314Z,100241.69
2023-02-24T07:05:50.718Z,100242.31
2023-02-24T07:08:21.093Z,100248.38
2023-02-24T07:10:56.014Z,100241.75
2023-02-24T07:13:25.319Z,100246.53
2023-02-24T07:15:53.104Z,100241.19
2023-02-24T07:18:20.706Z,100242.22
2023-02-24T07:20:48.814Z,100248.94
2023-02-24T07:23:16.818Z,100240.94
2023-02-24T07:25:46.440Z,100240.75
2023-02-24T07:28:14.258Z,100244.66
2023-02-24T07:30:42.383Z,100251.28
2023-02-24T07:33:10.364Z,100242.97
2023-02-24T07:35:41.590Z,100244.97
2023-02-24T07:38:09.705Z,100238.31
2023-02-24T07:40:37.282Z,100223.00
2023-02-24T07:43:06.465Z,100227.31
2023-02-24T07:45:34.542Z,100234.56
2023-02-24T07:48:02.219Z,100220.72
2023-02-24T07:50:32.952Z,100225.47
2023-02-24T07:53:04.014Z,100221.50
2023-02-24T07:55:36.000Z,100218.59
2023-02-24T07:58:06.021Z,100220.03
2023-02-24T08:00:50.244Z,100204.91
2023-02-24T08:03:18.082Z,100205.56
2023-02-24T08:05:45.929Z,100209.69
2023-02-24T08:08:14.206Z,100213.87
2023-02-24T08:10:42.040Z,100200.38
2023-02-24T08:13:12.099Z,100201.16
2023-02-24T08:15:39.792Z,100199.78
2023-02-24T08:18:07.743Z,100201.09
2023-02-24T08:20:52.460Z,100194.34
2023-02-24T08:23:23.574Z,100193.25
2023-02-24T08:25:51.271Z,100198.94
2023-02-24T08:28:19.204Z,100197.38
2023-02-24T08:30:47.435Z,100188.03
2023-02-24T08:33:20.662Z,100185.97
2023-02-24T08:36:00.985Z,100188.22
2023-02-24T08:38:39.964Z,100187.38
2023-02-24T08:41:17.868Z,100185.19
2023-02-24T08:43:46.650Z,100190.16
2023-02-24T08:46:21.540Z,100189.94
2023-02-24T08:48:55.628Z,100175.94
2023-02-24T08:51:35.775Z,100182.19
2023-02-24T08:54:11.438Z,100175.63
2023-02-24T08:56:43.782Z,100176.16
2023-02-24T08:59:29.424Z,100167.03
2023-02-24T09:02:31.183Z,100172.47
2023-02-24T09:05:03.990Z,100157.81
2023-02-24T09:07:36.164Z,100159.31
2023-02-24T09:10:06.350Z,100156.53
2023-02-24T09:12:41.071Z,100149.81
2023-02-24T09:15:09.928Z,100146.31
2023-02-24T09:17:40.700Z,100153.19
2023-02-24T09:20:43.314Z,100152.44
2023-02-24T09:23:20.196Z,100146.31
2023-02-24T09:25:51.165Z,100126.50
2023-02-24T09:28:24.740Z,100139.41
2023-02-24T09:31:00.449Z,100135.53
2023-02-24T09:33:39.523Z,100125.91
2023-02-24T09:36:20.342Z,100127.31
2023-02-24T09:38:59.823Z,100126.22
2023-02-24T09:41:56.209Z,100127.63
2023-02-24T09:44:29.658Z,100120.50
2023-02-24T09:47:08.926Z,100124.38
2023-02-24T09:49:56.476Z,100119.50
2023-02-24T09:52:39.782Z,100116.34
2023-02-24T09:55:25.862Z,100115.66
2023-02-24T09:58:18.546Z,100107.97
2023-02-24T10:01:22.599Z,100103.25
2023-02-24T10:03:51.850Z,100097.91
2023-02-24T10:06:21.928Z,100102.41
2023-02-24T10:09:00.055Z,100085.09
2023-02-24T10:11:35.375Z,100091.31
2023-02-24T10:14:06.506Z,100081.37
2023-02-24T10:16:44.491Z,100081.19
2023-02-24T10:19:25.141Z,100065.50
2023-02-24T10:22:27.564Z,100059.34
2023-02-24T10:25:22.480Z,100058.66
2023-02-24T10:28:11.832Z,100055.19
2023-02-24T10:30:50.326Z,100055.09
2023-02-24T10:33:25.485Z,100047.94
2023-02-24T10:36:19.849Z,100041.00
2023-02-24T10:38:50.758Z,100039.97
2023-02-24T10:41:18.819Z,100026.75
2023-02-24T10:44:01.023Z,100017.72
2023-02-24T10:46:41.730Z,100006.84
2023-02-24T10:49:17.211Z,100004.38
2023-02-24T10:51:51.745Z,100000.69
2023-02-24T10:54:33.894Z,99984.50
2023-02-24T10:57:29.586Z,99985.72
2023-02-24T11:00:18.699Z,99983.31
2023-02-24T11:03:09.403Z,99975.50
2023-02-24T11:06:04.983Z,99966.56
2023-02-24T11:08:39.744Z,99953.94
2023-02-24T11:15:20.000Z,99947.25
2023-02-24T11:17:57.743Z,99940.03
2023-02-24T11:20:49.367Z,99933.91
2023-02-24T11:23:27.427Z,99932.81
2023-02-24T11:26:16.929Z,99926.63
2023-02-24T11:29:17.588Z,99921.53
2023-02-24T11:32:09.138Z,99909.75
2023-02-24T11:35:00.886Z,99899.38
2023-02-24T11:37:45.357Z,99898.72
2023-02-24T11:40:23.895Z,99890.91
2023-02-24T11:43:19.343Z,99895.50
2023-02-24T11:46:13.090Z,99882.47
2023-02-24T11:48:48.143Z,99883.94
2023-02-24T11:51:33.075Z,99871.97
2023-02-24T11:54:12.241Z,99874.62
2023-02-24T11:56:44.130Z,99851.06
2023-02-24T11:59:30.143Z,99858.25
2023-02-24T12:02:09.981Z,99853.53
2023-02-24T12:04:46.545Z,99845.72
2023-02-24T12:07:20.490Z,99841.50
2023-02-24T12:10:15.957Z,99833.09
2023-02-24T12:13:10.313Z,99840.81
2023-02-24T12:15:58.001Z,99823.38
2023-02-24T12:18:30.382Z,99823.03
2023-02-24T12:21:05.663Z,99820.94
2023-02-24T12:23:35.211Z,99814.09
2023-02-24T12:26:09.017Z,99804.34
2023-02-24T12:28:56.968Z,99809.75
2023-02-24T12:31:53.505Z,99800.75
2023-02-24T12:34:31.610Z,99793.41
2023-02-24T12:37:16.792Z,99790.59
2023-02-24T12:40:11.731Z,99794.97
2023-02-24T12:43:28.501Z,99781.59
2023-02-24T12:46:12.467Z,99782.44
2023-02-24T12:48:51.628Z,99783.41
2023-02-24T12:51:44.818Z,99778.91
2023-02-24T12:54:23.229Z,99765.91
2023-02-24T12:57:42.137Z,99765.69
2023-02-24T13:00:14.840Z,99765.69
2023-02-24T13:03:09.379Z,99769.56
2023-02-24T13:05:48.209Z,99761.22
2023-02-24T13:08:35.996Z,99758.72
2023-02-24T13:11:13.188Z,99738.47
2023-02-24T13:14:04.569Z,99745.22
2023-02-24T13:16:35.200Z,99745.69
2023-02-24T13:19:06.926Z,99735.22
2023-02-24T13:21:35.099Z,99729.41
2023-02-24T13:24:03.254Z,99728.56
2023-02-24T13:26:32.463Z,99726.13
2023-02-24T13:29:11.434Z,99729.22
2023-02-24T13:31:45.199Z,99728.25
2023-02-24T13:34:43.420Z,99722.72
2023-02-24T13:37:11.738Z,99723.25
2023-02-24T13:39:46.890Z,99724.00
2023-02-24T13:42:25.995Z,99715.19
2023-02-24T13:45:03.490Z,99721.50
2023-02-24T13:47:49.122Z,99722.81
2023-02-24T13:50:27.942Z,99726.19
2023-02-24T13:53:02.037Z,99722.47
2023-02-24T13:55:58.804Z,99717.16
2023-02-24T13:58:53.462Z,99713.44
2023-02-24T14:01:22.232Z,99704.78
2023-02-24T14:04:06.308Z,99708.03
2023-02-24T14:06:34.182Z,99694.16
2023-02-24T14:09:05.140Z,99696.91
2023-02-24T14:11:35.371Z,99692.47
2023-02-24T14:14:04.247Z,99692.47
2023-02-24T14:16:38.457Z,99681.59
2023-02-24T14:19:14.207Z,99689.03
2023-02-24T14:21:49.238Z,99687.16
2023-02-24T14:24:17.745Z,99684.03
2023-02-24T14:26:51.488Z,99686.81
2023-02-24T14:29:23.264Z,99690.44
2023-02-24T14:31:53.503Z,99679.47
2023-02-24T14:34:24.145Z,99686.69
2023-02-24T14:36:54.382Z,99674.56
2023-02-24T14:39:23.565Z,99673.81
2023-02-24T14:41:52.743Z,99677.66
2023-02-24T14:44:26.133Z,99674.13
2023-02-24T14:47:06.609Z,99678.59
2023-02-24T14:49:36.012Z,99694.13
2023-02-24T14:52:11.935Z,99670.41
2023-02-24T14:54:47.795Z,99676.00
2023-02-24T14:57:22.239Z,99674.41
2023-02-24T14:59:53.459Z,99668.66
2023-02-24T15:02:26.493Z,99659.00
2023-02-24T15:04:55.288Z,99664.81
2023-02-24T15:07:29.099Z,99663.72
2023-02-24T15:09:57.022Z,99662.06
2023-02-24T15:12:32.500Z,99663.13
2023-02-24T15:15:07.555Z,99667.13
2023-02-24T15:17:39.656Z,99657.22
2023-02-24T15:20:27.293Z,99660.25
2023-02-24T15:22:56.249Z,99653.50
2023-02-24T15:25:42.008Z,99655.44
2023-02-24T15:28:32.980Z,99656.41
2023-02-24T15:31:00.666Z,99652.41
2023-02-24T15:33:34.568Z,99652.53
2023-02-24T15:36:07.563Z,99647.97
2023-02-24T15:38:38.611Z,99649.75
2023-02-24T15:41:10.110Z,99645.44
2023-02-24T15:43:43.390Z,99642.31
2023-02-24T15:46:30.708Z,99638.53
2023-02-24T15:49:03.118Z,99647.09
2023-02-24T15:51:37.803Z,99640.00
2023-02-24T15:54:08.911Z,99645.13
2023-02-24T15:56:36.616Z,99646.44
2023-02-24T15:59:06.045Z,99644.75
2023-02-24T16:01:34.146Z,99650.72
2023-02-24T16:04:04.812Z,99643.97
2023-02-24T16:06:33.998Z,99640.00
2023-02-24T16:09:05.339Z,99634.31
2023-02-24T16:11:37.354Z,99635.59
2023-02-24T16:14:05.254Z,99641.00
2023-02-24T16:16:33.474Z,99638.81
2023-02-24T16:19:01.290Z,99644.22
2023-02-24T16:21:29.100Z,99638.22
2023-02-24T16:23:56.679Z,99624.59
2023-02-24T16:26:24.602Z,99633.38
2023-02-24T16:28:56.668Z,99619.09
2023-02-24T16:31:25.657Z,99626.50
2023-02-24T16:33:55.835Z,99625.03
2023-02-24T16:36:24.692Z,99626.22
2023-02-24T16:38:53.508Z,99628.25
2023-02-24T16:41:21.570Z,99621.06
2023-02-24T16:43:49.440Z,99627.66
2023-02-24T16:46:20.422Z,99614.16
2023-02-24T16:48:50.867Z,99630.84
2023-02-24T16:51:19.026Z,99630.44
2023-02-24T16:53:46.560Z,99631.75
2023-02-24T16:56:15.331Z,99621.19
2023-02-24T16:58:43.427Z,99612.00
2023-02-24T17:01:18.455Z,99626.06
2023-02-24T17:03:51.536Z,99613.31
2023-02-24T17:06:21.610Z,99622.25
2023-02-24T17:08:50.478Z,99619.50
2023-02-24T17:11:20.187Z,99614.66
2023-02-24T17:13:48.046Z,99619.09
2023-02-24T17:16:16.078Z,99614.03
2023-02-24T17:18:43.721Z,99619.44
2023-02-24T17:21:14.241Z,99618.69
2023-02-24T17:23:44.982Z,99610.97
2023-02-24T17:26:16.399Z,99609.44
2023-02-24T17:28:44.423Z,99607.50
2023-02-24T17:31:12.561Z,99602.69
2023-02-24T17:33:41.585Z,99601.09
2023-02-24T17:36:09.624Z,99602.25
2023-02-24T17:38:37.221Z,99595.38
2023-02-24T17:41:05.883Z,99589.47
2023-02-24T17:43:34.056Z,99584.22
2023-02-24T17:46:03.889Z,99584.84
2023-02-24T17:48:32.954Z,99585.91
2023-02-24T17:51:00.758Z,99580.84
2023-02-24T17:53:29.249Z,99573.16
2023-02-24T17:56:04.488Z,99570.62
2023-02-24T17:58:33.346Z,99575.78
2023-02-24T18:01:02.524Z,99570.50
2023-02-24T18:03:31.014Z,99568.97
2023-02-24T18:06:08.551Z,99561.34
2023-02-24T18:08:37.990Z,99568.53
2023-02-24T18:11:07.514Z,99553.56
2023-02-24T18:13:35.491Z,99558.34
2023-02-24T18:16:09.541Z,99558.44
2023-02-24T18:18:37.975Z,99559.72
2023-02-24T18:21:07.097Z,99561.59
2023-02-24T18:23:36.404Z,99547.91
2023-02-24T18:26:05.927Z,99551.28
2023-02-24T18:28:34.680Z,99554.66
2023-02-24T18:31:13.219Z,99548.63
2023-02-24T18:33:41.556Z,99535.13
2023-02-24T18:36:10.102Z,99539.69
2023-02-24T18:38:37.995Z,99536.53
2023-02-24T18:41:15.613Z,99533.66
2023-02-24T18:43:43.552Z,99535.97
2023-02-24T18:46:13.833Z,99531.34
2023-02-24T18:48:44.495Z,99532.72
2023-02-24T18:51:14.458Z,99527.16
2023-02-24T18:53:42.101Z,99530.63
2023-02-24T18:56:22.271Z,99516.31
2023-02-24T18:58:52.685Z,99531.16
2023-02-24T19:01:24.154Z,99521.50
2023-02-24T19:03:52.902Z,99517.09
2023-02-24T19:06:22.158Z,99520.00
2023-02-24T19:08:58.787Z,99517.62
2023-02-24T19:11:27.330Z,99523.06
2023-02-24T19:13:55.607Z,99512.63
2023-02-24T19:16:23.947Z,99508.44
2023-02-24T19:18:53.278Z,99512.09
2023-02-24T19:21:21.468Z,99518.44
2023-02-24T19:23:49.426Z,99495.34
2023-02-24T19:26:19.679Z,99504.00
2023-02-24T19:28:47.938Z,99494.28
2023-02-24T19:31:18.410Z,99499.69
2023-02-24T19:33:51.751Z,99504.06
2023-02-24T19:36:20.096Z,99509.75
2023-02-24T19:38:48.377Z,99498.78
2023-02-24T19:41:16.234Z,99500.56
2023-02-24T19:43:44.287Z,99501.53
2023-02-24T19:46:14.232Z,99496.25
2023-02-24T19:48:43.720Z,99499.84
2023-02-24T19:51:20.456Z,99484.44
2023-02-24T19:53:52.899Z,99488.56
2023-02-24T19:56:32.548Z,99487.53
2023-02-24T19:59:02.217Z,99492.78
2023-02-24T20:01:30.909Z,99485.94
2023-02-24T20:04:01.381Z,99483.50
2023-02-24T20:06:32.718Z,99489.72
2023-02-24T20:09:01.066Z,99487.72
2023-02-24T20:11:29.938Z,99490.25
2023-02-24T20:13:57.821Z,99480.59
2023-02-24T20:16:27.317Z,99486.78
2023-02-24T20:18:55.498Z,99479.09
2023-02-24T20:21:23.688Z,99474.56
2023-02-24T20:23:51.820Z,99465.94
2023-02-24T20:26:20.510Z,99462.44
2023-02-24T20:28:48.381Z,99461.91
2023-02-24T20:31:19.314Z,99461.19
2023-02-24T20:33:48.487Z,99456.66
2023-02-24T20:36:25.571Z,99456.97
2023-02-24T20:38:54.772Z,99454.03
2023-02-24T20:41:22.686Z,99455.09
2023-02-24T20:43:50.899Z,99449.25
2023-02-24T20:46:25.231Z,99453.69
2023-02-24T20:48:56.749Z,99444.13
2023-02-24T20:51:24.841Z,99436.22
2023-02-24T20:53:57.819Z,99444.31
2023-02-24T20:56:28.315Z,99436.41
2023-02-24T20:59:02.439Z,99430.19
2023-02-24T21:01:31.125Z,99432.09
2023-02-24T21:03:59.678Z,99431.34
2023-02-24T21:06:28.143Z,99422.72
2023-02-24T21:08:57.350Z,99422.63
2023-02-24T21:11:25.484Z,99412.28
2023-02-24T21:13:53.535Z,99413.03
2023-02-24T21:16:22.675Z,99411.44
2023-02-24T21:18:53.126Z,99408.19
2023-02-24T21:21:21.546Z,99412.81
2023-02-24T21:23:50.376Z,99404.47
2023-02-24T21:26:18.347Z,99402.16
2023-02-24T21:28:46.615Z,99402.56
2023-02-24T21:31:17.146Z,99407.37
2023-02-24T21:33:45.112Z,99400.94
2023-02-24T21:36:14.644Z,99404.78
2023-02-24T21:38:42.563Z,99398.03
2023-02-24T21:41:14.809Z,99392.34
2023-02-24T21:43:44.341Z,99397.63
2023-02-24T21:46:13.843Z,99392.63
2023-02-24T21:48:42.106Z,99397.22
2023-02-24T21:51:12.087Z,99391.53
2023-02-24T21:53:41.873Z,99390.25
2023-02-24T21:56:16.727Z,99395.38
2023-02-24T21:58:46.825Z,99389.56
2023-02-24T22:01:17.225Z,99382.72
2023-02-24T22:03:45.279Z,99383.66
2023-02-24T22:06:14.438Z,99379.22
2023-02-24T22:08:45.673Z,99373.91
2023-02-24T22:11:18.815Z,99382.72
2023-02-24T22:13:47.204Z,99386.19
2023-02-24T22:16:18.308Z,99374.63
2023-02-24T22:18:46.940Z,99363.69
2023-02-24T22:21:17.367Z,99368.72
2023-02-24T22:23:49.224Z,99365.06
2023-02-24T22:26:17.380Z,99360.63
2023-02-24T22:28:46.957Z,99358.97
2023-02-24T22:31:17.013Z,99355.69
2023-02-24T22:33:45.073Z,99356.94
2023-02-24T22:36:15.943Z,99345.13
2023-02-24T22:38:45.786Z,99347.09
2023-02-24T22:41:16.871Z,99351.88
2023-02-24T22:43:44.635Z,99341.69
2023-02-24T22:46:17.680Z,99342.16
2023-02-24T22:48:45.621Z,99343.56
2023-02-24T22:51:14.210Z,99333.47
2023-02-24T22:53:46.564Z,99336.47
2023-02-24T22:56:16.530Z,99339.47
2023-02-24T22:58:45.338Z,99330.37
2023-02-24T23:01:18.629Z,99336.09
2023-02-24T23:03:46.674Z,99329.16
2023-02-24T23:06:17.633Z,99327.25
2023-02-24T23:08:46.793Z,99327.47
2023-02-24T23:11:24.819Z,99326.97
2023-02-24T23:13:53.052Z,99322.69
2023-02-24T23:16:23.976Z,99315.84
2023-02-24T23:18:56.243Z,99311.97
2023-02-24T23:21:33.888Z,99309.31
2023-02-24T23:24:01.928Z,99307.69
2023-02-24T23:26:31.378Z,99298.66
2023-02-24T23:28:59.672Z,99292.72
2023-02-24T23:31:27.668Z,99296.38
2023-02-24T23:33:55.664Z,99298.81
2023-02-24T23:36:24.152Z,99291.16
2023-02-24T23:38:51.939Z,99283.97
2023-02-24T23:41:19.950Z,99280.41
2023-02-24T23:43:47.592Z,99279.72
2023-02-24T23:46:15.206Z,99275.09
2023-02-24T23:48:43.342Z,99262.94
2023-02-24T23:51:13.618Z,99277.13
2023-02-24T23:53:43.817Z,99271.06
2023-02-24T23:56:21.869Z,99263.56
2023-02-24T23:58:54.790Z,99265.25
